createdAt,value
2023-04-17T00:02:43.277Z,17.38
2023-04-17T00:05:57.045Z,18.45
2023-04-17T00:09:09.441Z,18.83
2023-04-17T00:12:21.964Z,17.85
2023-04-17T00:15:34.402Z,19.13
2023-04-17T00:18:46.479Z,18.50
2023-04-17T00:21:58.343Z,17.53
2023-04-17T00:25:13.132Z,18.20
2023-04-17T00:28:25.310Z,19.43
2023-04-17T00:31:37.539Z,19.08
2023-04-17T00:34:50.562Z,18.00
2023-04-17T00:38:02.578Z,17.73
2023-04-17T00:41:14.834Z,17.98
2023-04-17T00:44:26.906Z,17.65
2023-04-17T00:47:39.214Z,18.20
2023-04-17T00:50:52.767Z,18.58
2023-04-17T00:54:06.220Z,18.85
2023-04-17T00:57:18.648Z,17.25
2023-04-17T01:00:32.406Z,17.75
2023-04-17T01:03:44.646Z,18.05
2023-04-17T01:06:59.704Z,17.38
2023-04-17T01:10:14.176Z,16.93
2023-04-17T01:13:26.502Z,17.18
2023-04-17T01:16:40.558Z,17.05
2023-04-17T01:19:53.798Z,16.95
2023-04-17T01:23:06.764Z,17.43
2023-04-17T01:26:22.812Z,14.58
2023-04-17T01:29:35.074Z,16.03
2023-04-17T01:32:47.257Z,16.15
2023-04-17T01:35:59.444Z,17.80
2023-04-17T01:39:11.883Z,17.95
2023-04-17T01:42:24.426Z,17.83
2023-04-17T01:45:36.442Z,17.83
2023-04-17T01:48:48.547Z,17.25
2023-04-17T01:52:00.571Z,18.15
2023-04-17T01:55:14.426Z,17.78
2023-04-17T01:58:26.744Z,18.75
2023-04-17T02:01:39.091Z,18.13
2023-04-17T02:04:51.287Z,17.48
2023-04-17T02:08:03.357Z,18.43
2023-04-17T02:11:15.522Z,17.55
2023-04-17T02:14:27.390Z,17.90
2023-04-17T02:17:41.593Z,16.20
2023-04-17T02:20:55.757Z,17.95
2023-04-17T02:24:07.853Z,17.85
2023-04-17T02:27:19.940Z,17.73
2023-04-17T02:30:33.236Z,17.38
2023-04-17T02:33:45.725Z,17.78
2023-04-17T02:36:57.668Z,17.90
2023-04-17T02:40:11.352Z,17.38
2023-04-17T02:43:23.685Z,17.20
2023-04-17T02:46:35.841Z,17.80
2023-04-17T02:49:48.428Z,17.28
2023-04-17T02:53:00.403Z,18.18
2023-04-17T03:05:15.275Z,16.35
2023-04-17T03:08:32.592Z,17.18
2023-04-17T03:11:44.085Z,16.93
2023-04-17T03:14:56.194Z,16.88
2023-04-17T03:18:08.655Z,17.30
2023-04-17T03:21:20.780Z,18.38
2023-04-17T03:24:33.671Z,17.85
2023-04-17T03:27:46.954Z,18.30
2023-04-17T03:31:01.607Z,17.85
2023-04-17T03:34:15.850Z,17.63
2023-04-17T03:37:28.178Z,18.28
2023-04-17T03:40:40.623Z,16.25
2023-04-17T03:43:53.204Z,19.65
2023-04-17T03:47:05.230Z,19.75
2023-04-17T03:50:18.466Z,16.73
2023-04-17T03:53:38.321Z,17.80
2023-04-17T03:56:52.253Z,18.23
2023-04-17T04:00:04.965Z,17.65
2023-04-17T04:03:19.035Z,18.00
2023-04-17T04:06:35.422Z,19.68
2023-04-17T04:09:48.479Z,17.33
2023-04-17T04:13:01.920Z,17.68
2023-04-17T04:16:15.869Z,18.65
2023-04-17T04:55:14.238Z,17.13
2023-04-17T04:58:29.871Z,18.68
2023-04-17T05:01:45.078Z,62.85
2023-04-17T05:07:59.501Z,19.13
2023-04-17T05:14:16.346Z,17.08
2023-04-17T05:34:14.953Z,26.15
2023-04-17T05:36:44.740Z,17.45
2023-04-17T05:51:36.524Z,15.15
2023-04-17T05:54:50.161Z,16.65
2023-04-17T05:58:39.632Z,17.98
2023-04-17T06:14:05.187Z,17.60
2023-04-17T06:17:17.545Z,16.98
2023-04-17T06:20:30.145Z,17.23
2023-04-17T06:23:42.158Z,18.38
2023-04-17T06:26:54.358Z,18.23
2023-04-17T06:30:06.574Z,18.03
2023-04-17T06:33:21.230Z,17.18
2023-04-17T06:36:33.562Z,17.33
2023-04-17T06:39:47.446Z,18.20
2023-04-17T06:42:59.969Z,18.88
2023-04-17T06:46:13.264Z,17.83
2023-04-17T06:49:25.726Z,18.83
2023-04-17T06:52:38.027Z,20.75
2023-04-17T06:55:50.293Z,21.70
2023-04-17T06:59:03.191Z,23.63
2023-04-17T07:02:15.788Z,40.38
2023-04-17T07:05:28.286Z,24.88
2023-04-17T07:08:40.564Z,20.93
2023-04-17T07:11:52.680Z,21.63
2023-04-17T07:15:04.936Z,20.95
2023-04-17T07:18:17.189Z,21.18
2023-04-17T07:21:29.311Z,22.78
2023-04-17T07:24:41.462Z,21.25
2023-04-17T07:27:53.580Z,21.68
2023-04-17T07:31:08.301Z,36.53
2023-04-17T07:34:20.564Z,25.03
2023-04-17T07:37:33.113Z,23.05
2023-04-17T07:40:45.592Z,24.30
2023-04-17T07:43:59.082Z,23.55
2023-04-17T07:47:11.511Z,21.98
2023-04-17T07:50:24.259Z,21.88
2023-04-17T07:53:37.561Z,21.75
2023-04-17T07:56:50.884Z,28.65
2023-04-17T08:00:03.853Z,27.13
2023-04-17T08:03:18.452Z,22.10
2023-04-17T08:06:31.123Z,22.98
2023-04-17T08:09:44.082Z,21.63
2023-04-17T08:12:56.443Z,20.15
2023-04-17T08:16:08.688Z,20.25
2023-04-17T08:19:21.118Z,19.35
2023-04-17T08:22:34.096Z,19.35
2023-04-17T08:25:46.254Z,21.80
2023-04-17T08:29:00.479Z,74.65
2023-04-17T08:32:14.608Z,56.43
2023-04-17T08:35:27.064Z,23.35
2023-04-17T08:39:13.866Z,20.30
2023-04-17T08:42:25.689Z,20.08
2023-04-17T08:45:38.698Z,21.25
2023-04-17T08:48:52.293Z,20.38
2023-04-17T08:52:09.878Z,24.53
2023-04-17T08:55:25.197Z,24.88
2023-04-17T08:58:40.248Z,41.48
2023-04-17T09:02:10.648Z,25.58
2023-04-17T09:05:30.608Z,22.78
2023-04-17T09:08:43.356Z,25.23
2023-04-17T09:12:14.603Z,24.15
2023-04-17T09:15:27.679Z,22.90
2023-04-17T09:18:41.358Z,22.60
2023-04-17T09:21:53.652Z,23.35
2023-04-17T09:25:06.173Z,21.28
2023-04-17T09:28:20.168Z,21.93
2023-04-17T09:31:38.141Z,20.93
2023-04-17T09:34:50.844Z,21.43
2023-04-17T09:38:03.569Z,22.95
2023-04-17T09:41:29.368Z,20.55
2023-04-17T09:44:42.547Z,20.23
2023-04-17T09:47:56.985Z,19.13
2023-04-17T09:51:09.523Z,18.13
2023-04-17T09:54:23.312Z,18.70
2023-04-17T09:57:35.927Z,16.48
2023-04-17T10:00:49.089Z,17.40
2023-04-17T10:04:04.750Z,47.13
2023-04-17T10:07:18.977Z,23.25
2023-04-17T10:10:34.366Z,16.98
2023-04-17T10:13:49.569Z,14.83
2023-04-17T10:17:02.320Z,16.30
2023-04-17T10:20:46.536Z,14.48
2023-04-17T10:24:00.144Z,13.98
2023-04-17T10:27:45.581Z,10.18
2023-04-17T10:31:02.216Z,9.90
2023-04-17T10:34:18.028Z,12.48
2023-04-17T10:38:02.590Z,26.70
2023-04-17T10:41:16.375Z,14.45
2023-04-17T10:44:30.507Z,13.13
2023-04-17T10:47:45.072Z,13.25
2023-04-17T10:50:57.285Z,13.80
2023-04-17T10:54:10.808Z,14.88
2023-04-17T10:57:33.842Z,11.63
2023-04-17T11:00:55.671Z,15.53
2023-04-17T11:04:08.374Z,77.78
2023-04-17T11:07:22.773Z,13.10
2023-04-17T11:10:35.267Z,11.28
2023-04-17T11:13:52.703Z,11.48
2023-04-17T11:17:05.171Z,10.13
2023-04-17T11:20:20.907Z,11.85
2023-04-17T11:23:37.868Z,9.73
2023-04-17T11:26:54.083Z,8.85
2023-04-17T11:30:06.232Z,9.57
2023-04-17T11:33:18.806Z,10.60
2023-04-17T11:36:31.419Z,12.73
2023-04-17T11:39:46.359Z,11.00
2023-04-17T11:42:58.535Z,10.65
2023-04-17T11:46:11.064Z,11.83
2023-04-17T11:49:30.407Z,11.40
2023-04-17T11:52:42.434Z,11.18
2023-04-17T11:55:56.504Z,9.60
2023-04-17T11:59:08.649Z,10.25
2023-04-17T12:02:21.266Z,9.58
2023-04-17T12:05:35.297Z,9.80
2023-04-17T12:08:53.711Z,10.20
2023-04-17T12:12:09.021Z,9.20
2023-04-17T12:15:21.689Z,10.03
2023-04-17T12:18:35.313Z,11.15
2023-04-17T12:21:48.006Z,12.78
2023-04-17T12:25:00.337Z,11.35
2023-04-17T12:28:13.198Z,11.65
2023-04-17T12:31:25.910Z,12.13
2023-04-17T12:34:38.057Z,12.20
2023-04-17T12:37:51.606Z,11.68
2023-04-17T12:41:03.791Z,12.15
2023-04-17T12:44:16.315Z,10.30
2023-04-17T12:47:28.375Z,13.15
2023-04-17T12:50:43.070Z,12.60
2023-04-17T12:53:55.399Z,12.48
2023-04-17T12:57:07.714Z,11.40
2023-04-17T13:00:22.700Z,10.45
2023-04-17T13:03:35.257Z,10.60
2023-04-17T13:06:47.733Z,10.43
2023-04-17T13:09:59.816Z,12.43
2023-04-17T13:13:11.903Z,11.13
2023-04-17T13:16:24.154Z,11.15
2023-04-17T13:19:39.602Z,10.60
2023-04-17T13:22:51.632Z,10.53
2023-04-17T13:26:03.877Z,10.05
2023-04-17T13:29:18.510Z,10.65
2023-04-17T13:32:30.292Z,9.88
2023-04-17T13:35:42.703Z,10.35
2023-04-17T13:38:54.838Z,12.43
2023-04-17T13:42:06.896Z,15.33
2023-04-17T13:45:19.598Z,15.43
2023-04-17T13:48:31.910Z,11.05
2023-04-17T13:51:44.075Z,10.70
2023-04-17T13:54:56.226Z,10.33
2023-04-17T13:58:09.040Z,8.30
2023-04-17T14:01:21.323Z,6.65
2023-04-17T14:04:33.942Z,7.40
2023-04-17T14:07:47.412Z,6.30
2023-04-17T14:11:00.151Z,5.70
2023-04-17T14:14:13.003Z,5.58
2023-04-17T14:17:25.294Z,5.65
2023-04-17T14:20:37.813Z,5.83
2023-04-17T14:23:51.684Z,5.78
2023-04-17T14:27:03.953Z,5.78
2023-04-17T14:30:17.967Z,6.25
2023-04-17T14:33:30.189Z,6.53
2023-04-17T14:36:43.795Z,12.13
2023-04-17T14:39:56.169Z,9.23
2023-04-17T14:43:08.321Z,8.08
2023-04-17T14:46:20.739Z,7.13
2023-04-17T14:49:33.052Z,6.43
2023-04-17T14:52:45.268Z,6.23
2023-04-17T14:55:59.378Z,5.55
2023-04-17T14:59:29.565Z,6.73
2023-04-17T15:02:46.625Z,12.93
2023-04-17T15:06:02.649Z,8.70
2023-04-17T15:09:15.296Z,5.58
2023-04-17T15:12:28.093Z,4.80
2023-04-17T15:15:40.355Z,4.30
2023-04-17T15:18:52.522Z,3.93
2023-04-17T15:22:04.930Z,4.13
2023-04-17T15:25:17.576Z,5.30
2023-04-17T15:28:29.793Z,4.33
2023-04-17T15:31:42.734Z,4.73
2023-04-17T15:34:55.021Z,4.58
2023-04-17T15:38:07.128Z,4.53
2023-04-17T15:41:19.330Z,4.55
2023-04-17T15:44:31.592Z,20.35
2023-04-17T15:47:48.511Z,7.20
2023-04-17T15:51:02.041Z,3.80
2023-04-17T15:54:15.283Z,3.40
2023-04-17T15:57:27.419Z,3.30
2023-04-17T16:00:39.724Z,3.05
2023-04-17T16:03:52.096Z,2.85
2023-04-17T16:07:06.084Z,3.30
2023-04-17T16:10:24.830Z,2.73
2023-04-17T16:13:46.226Z,2.85
2023-04-17T16:17:00.525Z,2.85
2023-04-17T16:20:15.917Z,2.80
2023-04-17T16:23:28.063Z,2.73
2023-04-17T16:26:42.851Z,2.53
2023-04-17T16:29:55.119Z,2.95
2023-04-17T16:33:07.447Z,2.80
2023-04-17T16:36:19.761Z,2.78
2023-04-17T16:39:32.145Z,3.18
2023-04-17T16:42:44.656Z,2.90
2023-04-17T16:45:57.624Z,2.58
2023-04-17T16:49:11.809Z,2.60
2023-04-17T16:52:24.441Z,2.50
2023-04-17T16:55:36.594Z,2.93
2023-04-17T16:58:48.927Z,2.73
2023-04-17T17:02:02.544Z,3.28
2023-04-17T17:05:16.646Z,2.60
2023-04-17T17:08:29.112Z,2.38
2023-04-17T17:11:41.428Z,2.95
2023-04-17T17:14:53.462Z,2.40
2023-04-17T17:18:05.582Z,2.78
2023-04-17T17:21:18.813Z,2.90
2023-04-17T17:24:31.648Z,3.08
2023-04-17T17:27:43.930Z,3.43
2023-04-17T17:30:57.994Z,2.98
2023-04-17T17:34:25.249Z,3.75
2023-04-17T17:37:27.098Z,4.55
2023-04-17T17:40:39.321Z,6.23
2023-04-17T17:43:51.561Z,5.60
2023-04-17T17:47:06.375Z,4.28
2023-04-17T17:50:18.847Z,4.20
2023-04-17T17:53:31.502Z,3.33
2023-04-17T17:56:43.970Z,2.95
2023-04-17T17:59:58.194Z,2.95
2023-04-17T18:03:10.824Z,3.28
2023-04-17T18:06:23.440Z,3.28
2023-04-17T18:09:35.507Z,2.98
2023-04-17T18:12:47.788Z,3.10
2023-04-17T18:15:59.968Z,3.10
2023-04-17T18:19:12.558Z,3.20
2023-04-17T18:22:24.921Z,3.35
2023-04-17T18:25:37.828Z,3.73
2023-04-17T18:28:50.014Z,3.05
2023-04-17T18:32:02.338Z,3.30
2023-04-17T18:35:15.999Z,3.08
2023-04-17T18:38:28.362Z,2.75
2023-04-17T18:41:40.868Z,3.35
2023-04-17T18:44:53.288Z,2.95
2023-04-17T18:48:05.754Z,3.53
2023-04-17T18:51:20.965Z,4.40
2023-04-17T18:54:35.048Z,6.75
2023-04-17T19:11:51.116Z,6.75
2023-04-17T19:15:06.503Z,6.45
2023-04-17T19:39:58.347Z,5.65
2023-04-17T19:43:10.851Z,5.35
2023-04-17T19:55:23.564Z,5.10
2023-04-17T20:01:37.358Z,5.33
2023-04-17T20:32:55.793Z,6.05
2023-04-17T20:36:08.738Z,8.75
2023-04-17T20:42:21.264Z,5.83
2023-04-17T20:45:33.608Z,5.75
2023-04-17T20:48:45.834Z,6.93
2023-04-17T20:51:59.218Z,6.18
2023-04-17T20:55:13.162Z,5.98
2023-04-17T20:58:25.632Z,5.75
2023-04-17T21:01:38.163Z,7.48
2023-04-17T21:04:50.595Z,7.20
2023-04-17T21:08:02.936Z,7.73
2023-04-17T21:11:14.988Z,8.13
2023-04-17T21:14:27.493Z,7.68
2023-04-17T21:17:39.520Z,7.70
2023-04-17T21:23:56.392Z,7.78
